createdAt,value
2023-12-07T00:01:31.463Z,6.03
2023-12-07T00:04:04.388Z,4.65
2023-12-07T00:06:33.955Z,6.95
2023-12-07T00:09:03.139Z,8.38
2023-12-07T00:11:29.587Z,4.43
2023-12-07T00:13:56.009Z,8.35
2023-12-07T00:16:22.450Z,5.22
2023-12-07T00:18:49.297Z,4.25
2023-12-07T00:21:18.192Z,5.65
2023-12-07T00:23:44.727Z,3.83
2023-12-07T00:26:15.052Z,7.13
2023-12-07T00:28:44.823Z,6.55
2023-12-07T00:33:53.149Z,4.32
2023-12-07T00:36:21.723Z,6.60
2023-12-07T00:38:52.280Z,5.18
2023-12-07T00:41:24.510Z,8.23
2023-12-07T00:43:51.043Z,4.85
2023-12-07T00:46:17.489Z,4.45
2023-12-07T00:48:49.389Z,9.53
2023-12-07T00:51:16.509Z,4.72
2023-12-07T00:53:42.949Z,6.55
2023-12-07T00:56:12.862Z,6.15
2023-12-07T00:58:39.827Z,9.45
2023-12-07T01:01:09.104Z,7.40
2023-12-07T01:03:41.931Z,9.90
2023-12-07T01:06:09.078Z,5.07
2023-12-07T01:08:44.957Z,7.63
2023-12-07T01:11:11.400Z,5.07
2023-12-07T01:16:22.913Z,6.00
2023-12-07T01:18:52.479Z,6.55
2023-12-07T01:24:13.350Z,6.00
2023-12-07T01:26:53.026Z,6.73
2023-12-07T01:29:20.026Z,9.05
2023-12-07T01:31:52.288Z,5.70
2023-12-07T01:34:23.164Z,7.38
2023-12-07T01:36:52.132Z,10.15
2023-12-07T01:39:22.371Z,5.60
2023-12-07T01:44:29.702Z,7.20
2023-12-07T01:46:59.552Z,4.82
2023-12-07T01:49:26.094Z,6.90
2023-12-07T01:51:52.969Z,6.70
2023-12-07T01:54:23.906Z,7.25
2023-12-07T01:56:52.101Z,5.53
2023-12-07T01:59:21.378Z,6.55
2023-12-07T02:01:47.928Z,4.68
2023-12-07T02:04:19.071Z,5.63
2023-12-07T02:06:49.000Z,7.28
2023-12-07T02:09:18.398Z,8.88
2023-12-07T02:11:45.155Z,5.13
2023-12-07T02:14:22.115Z,7.55
2023-12-07T02:17:00.586Z,4.53
2023-12-07T02:20:00.736Z,6.70
2023-12-07T02:22:38.171Z,4.90
2023-12-07T02:25:10.342Z,4.18
2023-12-07T02:27:39.807Z,4.40
2023-12-07T02:30:12.077Z,6.40
2023-12-07T02:32:48.930Z,4.32
2023-12-07T02:35:18.961Z,5.55
2023-12-07T02:37:55.725Z,8.32
2023-12-07T02:40:26.564Z,4.82
2023-12-07T02:42:58.056Z,7.67
2023-12-07T02:45:27.322Z,4.45
2023-12-07T02:47:58.564Z,5.32
2023-12-07T02:50:30.831Z,4.45
2023-12-07T02:53:00.491Z,6.43
2023-12-07T02:55:27.222Z,6.40
2023-12-07T02:57:56.504Z,6.35
2023-12-07T03:00:23.059Z,5.05
2023-12-07T03:02:51.708Z,4.88
2023-12-07T03:05:23.962Z,7.35
2023-12-07T03:07:50.391Z,7.47
2023-12-07T03:13:04.949Z,7.13
2023-12-07T03:15:31.388Z,4.18
2023-12-07T03:17:57.894Z,8.15
2023-12-07T03:20:33.774Z,4.90
2023-12-07T03:23:00.362Z,5.30
2023-12-07T03:25:31.639Z,6.05
2023-12-07T03:27:58.091Z,7.85
2023-12-07T03:30:24.537Z,5.45
2023-12-07T03:32:51.105Z,5.47
2023-12-07T03:35:21.497Z,4.97
2023-12-07T03:37:47.942Z,4.45
2023-12-07T03:40:17.648Z,8.35
2023-12-07T03:42:51.830Z,5.35
2023-12-07T03:45:26.872Z,5.33
2023-12-07T03:47:53.444Z,3.75
2023-12-07T03:50:29.106Z,5.35
2023-12-07T03:52:55.608Z,4.40
2023-12-07T03:55:27.393Z,5.65
2023-12-07T03:57:57.460Z,4.13
2023-12-07T04:00:28.432Z,11.73
2023-12-07T04:02:57.910Z,8.55
2023-12-07T04:05:26.259Z,6.25
2023-12-07T04:07:52.765Z,9.93
2023-12-07T04:10:19.262Z,5.67
2023-12-07T04:12:45.711Z,10.57
2023-12-07T04:15:18.507Z,7.85
2023-12-07T04:17:47.977Z,8.02
2023-12-07T04:20:20.383Z,9.98
2023-12-07T04:22:50.646Z,16.10
2023-12-07T04:25:25.974Z,10.43
2023-12-07T04:27:52.396Z,8.27
2023-12-07T04:30:22.278Z,11.07
2023-12-07T04:32:51.531Z,9.07
2023-12-07T04:35:18.036Z,9.47
2023-12-07T04:37:46.857Z,17.80
2023-12-07T04:40:16.784Z,9.70
2023-12-07T04:42:43.431Z,8.52
2023-12-07T04:45:13.182Z,10.07
2023-12-07T04:47:39.784Z,11.67
2023-12-07T04:50:06.660Z,10.85
2023-12-07T04:52:42.246Z,8.80
2023-12-07T04:55:16.756Z,9.30
2023-12-07T04:57:44.493Z,16.35
2023-12-07T05:00:11.320Z,25.37
2023-12-07T05:02:46.858Z,14.73
2023-12-07T05:05:13.518Z,14.52
2023-12-07T05:07:42.740Z,13.98
2023-12-07T05:10:12.394Z,17.55
2023-12-07T05:12:46.468Z,11.23
2023-12-07T05:15:15.626Z,6.97
2023-12-07T05:20:27.995Z,11.65
2023-12-07T05:22:57.672Z,15.32
2023-12-07T05:25:24.219Z,19.63
2023-12-07T05:27:53.821Z,13.90
2023-12-07T05:30:23.228Z,14.40
2023-12-07T05:32:54.112Z,17.73
2023-12-07T05:35:24.629Z,7.32
2023-12-07T05:37:53.563Z,37.87
2023-12-07T05:40:26.227Z,20.85
2023-12-07T05:42:52.720Z,23.65
2023-12-07T05:48:04.894Z,16.60
2023-12-07T05:50:34.519Z,37.90
2023-12-07T05:55:49.952Z,11.68
2023-12-07T05:58:16.683Z,22.85
2023-12-07T06:00:44.901Z,13.95
2023-12-07T06:03:17.195Z,20.60
2023-12-07T06:05:48.701Z,31.08
2023-12-07T06:08:15.100Z,8.88
2023-12-07T06:10:44.768Z,14.52
2023-12-07T06:13:16.942Z,20.42
2023-12-07T06:15:46.548Z,46.13
2023-12-07T06:18:13.138Z,23.73
2023-12-07T06:20:42.779Z,30.40
2023-12-07T06:23:13.690Z,25.63
2023-12-07T06:25:53.573Z,18.95
2023-12-07T06:28:38.755Z,26.53
2023-12-07T06:31:11.660Z,59.20
2023-12-07T06:33:38.187Z,24.50
2023-12-07T06:36:06.140Z,23.95
2023-12-07T06:38:32.696Z,49.65
2023-12-07T06:41:03.170Z,33.33
2023-12-07T06:43:33.958Z,30.88
2023-12-07T06:46:03.635Z,29.30
2023-12-07T06:48:36.638Z,34.30
2023-12-07T06:51:06.353Z,47.38
2023-12-07T06:53:38.629Z,28.40
2023-12-07T06:56:06.509Z,17.30
2023-12-07T06:58:33.089Z,22.40
2023-12-07T07:01:02.349Z,36.42
2023-12-07T07:03:31.818Z,28.27
2023-12-07T07:06:02.755Z,32.90
2023-12-07T07:08:33.217Z,32.70
2023-12-07T07:10:59.707Z,38.13
2023-12-07T07:13:34.331Z,22.35
2023-12-07T07:16:00.795Z,26.25
2023-12-07T07:21:15.658Z,18.63
2023-12-07T07:23:45.875Z,14.65
2023-12-07T07:26:17.840Z,26.60
2023-12-07T07:28:44.777Z,37.00
2023-12-07T07:31:14.769Z,14.50
2023-12-07T07:33:41.362Z,27.88
2023-12-07T07:36:08.339Z,21.42
2023-12-07T07:38:34.847Z,20.88
2023-12-07T07:41:04.597Z,40.25
2023-12-07T07:43:31.122Z,12.27
2023-12-07T07:45:57.583Z,28.83
2023-12-07T07:48:29.405Z,30.40
2023-12-07T07:50:55.985Z,24.13
2023-12-07T07:53:22.466Z,21.45
2023-12-07T07:55:51.854Z,27.97
2023-12-07T07:58:21.526Z,9.25
2023-12-07T08:00:52.326Z,17.00
2023-12-07T08:03:22.139Z,14.57
2023-12-07T08:05:48.805Z,26.58
2023-12-07T08:08:19.936Z,44.10
2023-12-07T08:10:54.525Z,20.85
2023-12-07T08:13:26.108Z,31.83
2023-12-07T08:15:55.953Z,36.30
2023-12-07T08:18:24.898Z,21.42
2023-12-07T08:20:51.332Z,9.80
2023-12-07T08:23:17.792Z,24.70
2023-12-07T08:25:47.454Z,24.10
2023-12-07T08:28:17.110Z,31.17
2023-12-07T08:30:50.967Z,38.83
2023-12-07T08:33:17.534Z,16.90
2023-12-07T08:35:43.966Z,45.47
2023-12-07T08:40:56.906Z,22.52
2023-12-07T08:43:24.125Z,34.28
2023-12-07T08:48:42.649Z,13.48
2023-12-07T08:51:11.504Z,18.25
2023-12-07T08:53:41.587Z,28.65
2023-12-07T08:56:11.571Z,36.55
2023-12-07T08:58:45.458Z,21.73
2023-12-07T09:01:25.484Z,10.88
2023-12-07T09:03:57.322Z,16.08
2023-12-07T09:06:26.941Z,17.08
2023-12-07T09:08:57.128Z,16.48
2023-12-07T09:11:24.082Z,21.23
2023-12-07T09:13:59.871Z,22.80
2023-12-07T09:16:27.300Z,29.23
2023-12-07T09:18:57.049Z,25.27
2023-12-07T09:21:23.473Z,24.70
2023-12-07T09:23:49.848Z,20.97
2023-12-07T09:26:20.811Z,56.58
2023-12-07T09:28:47.771Z,21.25
2023-12-07T09:31:14.481Z,15.10
2023-12-07T09:33:44.210Z,18.15
2023-12-07T09:36:12.496Z,18.67
2023-12-07T09:38:41.317Z,21.65
2023-12-07T09:41:07.786Z,24.20
2023-12-07T09:43:34.220Z,27.77
2023-12-07T09:46:01.178Z,13.90
2023-12-07T09:48:27.724Z,25.73
2023-12-07T09:51:00.243Z,9.43
2023-12-07T09:56:16.089Z,7.88
2023-12-07T09:58:43.421Z,16.45
2023-12-07T10:01:10.391Z,10.67
2023-12-07T10:03:37.222Z,11.70
2023-12-07T10:06:07.230Z,7.82
2023-12-07T10:08:40.986Z,5.18
2023-12-07T10:11:13.040Z,11.75
2023-12-07T10:13:43.205Z,9.03
2023-12-07T10:16:16.356Z,13.38
2023-12-07T10:18:46.125Z,10.90
2023-12-07T10:21:16.017Z,7.95
2023-12-07T10:23:57.564Z,6.90
2023-12-07T10:26:24.412Z,7.70
2023-12-07T10:28:58.756Z,7.50
2023-12-07T10:31:25.652Z,18.40
2023-12-07T10:34:01.685Z,8.00
2023-12-07T10:36:28.534Z,7.80
2023-12-07T10:38:58.249Z,9.20
2023-12-07T10:41:25.938Z,14.63
2023-12-07T10:44:01.501Z,13.48
2023-12-07T10:46:28.514Z,8.15
2023-12-07T10:49:02.951Z,5.93
2023-12-07T10:51:29.532Z,5.27
2023-12-07T10:53:57.775Z,10.43
2023-12-07T10:56:47.693Z,15.93
2023-12-07T10:59:23.628Z,5.38
2023-12-07T11:02:01.236Z,8.40
2023-12-07T11:04:38.167Z,5.70
2023-12-07T11:07:13.267Z,7.70
2023-12-07T11:09:53.784Z,5.28
2023-12-07T11:12:35.381Z,8.10
2023-12-07T11:15:06.321Z,16.25
2023-12-07T11:17:56.937Z,11.90
2023-12-07T11:20:59.815Z,5.82
2023-12-07T11:23:29.965Z,9.05
2023-12-07T11:25:57.459Z,6.93
2023-12-07T11:31:30.032Z,10.30
2023-12-07T11:33:56.578Z,9.30
2023-12-07T11:36:29.505Z,6.28
2023-12-07T11:39:04.191Z,6.07
2023-12-07T11:41:41.224Z,8.63
2023-12-07T11:44:16.465Z,11.07
2023-12-07T11:46:42.933Z,8.73
2023-12-07T11:49:21.122Z,7.78
2023-12-07T11:51:55.227Z,8.70
2023-12-07T11:54:24.623Z,9.93
2023-12-07T11:56:59.429Z,6.93
2023-12-07T11:59:33.911Z,9.10
2023-12-07T12:02:07.348Z,10.43
2023-12-07T12:04:33.945Z,9.38
2023-12-07T12:07:10.096Z,9.57
2023-12-07T12:09:36.626Z,7.67
2023-12-07T12:12:07.269Z,12.52
2023-12-07T12:14:33.976Z,10.07
2023-12-07T12:17:00.430Z,14.38
2023-12-07T12:19:33.409Z,10.85
2023-12-07T12:22:05.984Z,15.27
2023-12-07T12:24:40.889Z,12.00
2023-12-07T12:27:20.704Z,11.00
2023-12-07T12:29:55.188Z,10.95
2023-12-07T12:32:24.459Z,11.77
2023-12-07T12:34:56.817Z,11.33
2023-12-07T12:37:26.676Z,11.23
2023-12-07T12:39:53.416Z,10.50
2023-12-07T12:42:29.756Z,12.05
2023-12-07T12:44:56.236Z,12.43
2023-12-07T12:47:26.556Z,16.30
2023-12-07T12:49:53.430Z,16.65
2023-12-07T12:52:28.159Z,16.48
2023-12-07T12:54:58.373Z,12.57
2023-12-07T12:57:31.160Z,15.55
2023-12-07T13:00:01.716Z,15.03
2023-12-07T13:02:31.205Z,13.60
2023-12-07T13:05:00.991Z,14.07
2023-12-07T13:07:28.006Z,16.40
2023-12-07T13:09:55.646Z,13.52
2023-12-07T13:12:28.867Z,19.10
2023-12-07T13:15:01.176Z,22.23
2023-12-07T13:17:27.966Z,16.85
2023-12-07T13:19:55.812Z,15.40
2023-12-07T13:22:24.690Z,20.17
2023-12-07T13:24:51.401Z,15.60
2023-12-07T13:27:19.000Z,15.75
2023-12-07T13:29:47.806Z,15.38
2023-12-07T13:32:17.102Z,16.77
2023-12-07T13:34:44.173Z,13.38
2023-12-07T13:37:13.343Z,18.23
2023-12-07T13:39:39.798Z,14.98
2023-12-07T13:42:08.475Z,16.02
2023-12-07T13:44:40.738Z,13.63
2023-12-07T13:47:07.196Z,19.55
2023-12-07T13:49:36.591Z,16.37
2023-12-07T13:52:08.451Z,15.98
2023-12-07T13:54:51.170Z,15.88
2023-12-07T13:57:21.941Z,18.45
2023-12-07T13:59:52.618Z,16.10
2023-12-07T14:02:20.416Z,16.30
2023-12-07T14:04:52.540Z,15.65
2023-12-07T14:07:25.582Z,19.92
2023-12-07T14:09:58.584Z,17.58
2023-12-07T14:12:30.513Z,17.92
2023-12-07T14:15:00.121Z,18.50
2023-12-07T14:17:35.144Z,15.93
2023-12-07T14:23:13.296Z,21.20
2023-12-07T14:25:47.612Z,21.10
2023-12-07T14:28:18.627Z,17.50
2023-12-07T14:30:48.372Z,22.85
2023-12-07T14:33:22.251Z,22.83
2023-12-07T14:35:49.844Z,22.90
2023-12-07T14:38:16.587Z,19.75
2023-12-07T14:40:45.381Z,21.53
2023-12-07T14:43:14.996Z,25.70
2023-12-07T14:48:23.086Z,20.40
2023-12-07T14:50:57.341Z,18.45
2023-12-07T14:53:25.042Z,15.50
2023-12-07T14:55:53.212Z,20.45
2023-12-07T14:58:22.683Z,17.73
2023-12-07T15:00:55.924Z,19.02
2023-12-07T15:03:25.412Z,20.77
2023-12-07T15:05:57.986Z,24.97
2023-12-07T15:08:27.245Z,19.90
2023-12-07T15:10:57.929Z,23.83
2023-12-07T15:13:31.973Z,20.63
2023-12-07T15:15:58.862Z,28.13
2023-12-07T15:18:26.308Z,23.07
2023-12-07T15:20:52.859Z,24.83
2023-12-07T15:23:19.380Z,23.40
2023-12-07T15:25:49.930Z,22.83
2023-12-07T15:28:16.299Z,23.73
2023-12-07T15:30:42.707Z,26.07
2023-12-07T15:33:13.622Z,26.85
2023-12-07T15:35:43.503Z,28.33
2023-12-07T15:38:14.288Z,32.13
2023-12-07T15:40:44.345Z,29.88
2023-12-07T15:43:10.969Z,29.40
2023-12-07T15:45:40.493Z,32.53
2023-12-07T15:48:07.185Z,31.40
2023-12-07T15:50:33.788Z,32.10
2023-12-07T15:53:04.875Z,31.60
2023-12-07T15:55:31.298Z,30.83
2023-12-07T15:57:58.552Z,28.65
2023-12-07T16:00:28.354Z,32.40
2023-12-07T16:02:56.190Z,33.17
2023-12-07T16:05:34.463Z,29.63
2023-12-07T16:08:01.071Z,33.63
2023-12-07T16:10:33.542Z,32.20
2023-12-07T16:13:00.166Z,29.55
2023-12-07T16:15:26.713Z,30.17
2023-12-07T16:18:02.282Z,34.10
2023-12-07T16:20:28.891Z,31.13
2023-12-07T16:22:57.765Z,28.73
2023-12-07T16:25:27.379Z,28.70
2023-12-07T16:27:53.871Z,28.58
2023-12-07T16:30:23.566Z,28.15
2023-12-07T16:32:55.302Z,27.80
2023-12-07T16:35:30.302Z,30.83
2023-12-07T16:37:56.712Z,22.63
2023-12-07T16:40:26.869Z,23.70
2023-12-07T16:42:57.519Z,25.17
2023-12-07T16:45:27.384Z,25.60
2023-12-07T16:47:57.103Z,24.90
2023-12-07T16:50:23.534Z,26.33
2023-12-07T16:52:59.533Z,27.15
2023-12-07T16:55:26.471Z,21.50
2023-12-07T16:57:56.768Z,20.23
2023-12-07T17:00:26.865Z,20.90
2023-12-07T17:03:01.724Z,22.08
2023-12-07T17:05:28.228Z,27.00
2023-12-07T17:07:54.902Z,22.58
2023-12-07T17:10:28.836Z,29.40
2023-12-07T17:12:55.318Z,24.65
2023-12-07T17:15:22.079Z,20.67
2023-12-07T17:17:52.939Z,20.52
2023-12-07T17:20:19.725Z,20.77
2023-12-07T17:22:52.161Z,21.57
2023-12-07T17:25:20.283Z,17.33
2023-12-07T17:27:56.650Z,17.30
2023-12-07T17:30:24.688Z,18.52
2023-12-07T17:32:57.415Z,17.75
2023-12-07T17:35:23.987Z,25.30
2023-12-07T17:37:50.432Z,20.20
2023-12-07T17:40:21.096Z,16.75
2023-12-07T17:42:47.606Z,15.05
2023-12-07T17:45:14.244Z,18.60
2023-12-07T17:47:50.140Z,17.53
2023-12-07T17:50:16.912Z,20.05
2023-12-07T17:52:52.624Z,13.77
2023-12-07T17:55:19.052Z,16.15
2023-12-07T17:57:48.349Z,15.80
2023-12-07T18:00:18.046Z,14.27
2023-12-07T18:02:51.944Z,17.45
2023-12-07T18:05:21.568Z,15.25
2023-12-07T18:07:50.732Z,12.30
2023-12-07T18:10:17.608Z,12.65
2023-12-07T18:12:47.652Z,13.10
2023-12-07T18:15:20.046Z,12.10
2023-12-07T18:17:50.456Z,15.85
2023-12-07T18:20:29.304Z,16.95
2023-12-07T18:23:07.132Z,13.90
2023-12-07T18:25:33.660Z,13.53
2023-12-07T18:30:45.111Z,11.23
2023-12-07T18:33:14.923Z,15.18
2023-12-07T18:35:43.591Z,10.93
2023-12-07T18:38:15.525Z,10.20
2023-12-07T18:40:43.671Z,10.70
2023-12-07T18:43:14.927Z,11.60
2023-12-07T18:45:42.516Z,12.48
2023-12-07T18:48:15.504Z,10.60
2023-12-07T18:50:44.972Z,11.03
2023-12-07T18:53:19.009Z,11.40
2023-12-07T18:55:48.219Z,13.00
2023-12-07T18:58:20.805Z,9.82
2023-12-07T19:00:50.429Z,9.70
2023-12-07T19:03:19.715Z,7.20
2023-12-07T19:05:46.364Z,11.48
2023-12-07T19:08:13.307Z,7.75
2023-12-07T19:10:53.726Z,8.13
2023-12-07T19:13:20.253Z,7.90
2023-12-07T19:15:51.150Z,11.27
2023-12-07T19:18:18.558Z,8.68
2023-12-07T19:20:45.281Z,9.02
2023-12-07T19:23:15.000Z,9.70
2023-12-07T19:25:41.521Z,8.05
2023-12-07T19:28:08.057Z,7.40
2023-12-07T19:30:39.576Z,12.80
2023-12-07T19:33:06.168Z,9.55
2023-12-07T19:35:32.987Z,7.25
2023-12-07T19:38:03.764Z,9.18
2023-12-07T19:40:30.409Z,7.37
2023-12-07T19:43:04.625Z,8.63
2023-12-07T19:45:35.634Z,7.93
2023-12-07T19:48:03.123Z,9.07
2023-12-07T19:50:35.866Z,8.63
2023-12-07T19:53:06.929Z,5.97
2023-12-07T19:55:33.595Z,9.63
2023-12-07T19:58:07.678Z,11.73
2023-12-07T20:00:42.185Z,8.52
2023-12-07T20:03:16.547Z,8.65
2023-12-07T20:05:43.565Z,8.50
2023-12-07T20:08:10.431Z,8.13
2023-12-07T20:10:46.140Z,10.20
2023-12-07T20:13:12.717Z,7.25
2023-12-07T20:15:48.975Z,7.97
2023-12-07T20:18:15.986Z,9.53
2023-12-07T20:20:45.878Z,7.60
2023-12-07T20:23:12.493Z,9.95
2023-12-07T20:25:38.915Z,6.20
2023-12-07T20:28:06.886Z,6.22
2023-12-07T20:30:36.066Z,8.73
2023-12-07T20:33:02.551Z,6.13
2023-12-07T20:35:31.839Z,7.32
2023-12-07T20:38:01.216Z,7.20
2023-12-07T20:40:27.666Z,7.82
2023-12-07T20:42:56.652Z,8.67
2023-12-07T20:45:26.261Z,7.00
2023-12-07T20:47:55.463Z,8.38
2023-12-07T20:50:27.031Z,6.57
2023-12-07T20:52:56.619Z,4.38
2023-12-07T20:55:23.480Z,10.97
2023-12-07T20:57:52.399Z,8.13
2023-12-07T21:00:19.275Z,6.78
2023-12-07T21:02:48.668Z,5.47
2023-12-07T21:05:19.414Z,6.68
2023-12-07T21:07:59.074Z,6.53
2023-12-07T21:10:26.342Z,8.93
2023-12-07T21:12:58.601Z,6.72
2023-12-07T21:15:25.999Z,5.82
2023-12-07T21:18:01.741Z,7.03
2023-12-07T21:20:28.626Z,9.30
2023-12-07T21:23:04.316Z,6.38
2023-12-07T21:25:30.761Z,6.90
2023-12-07T21:28:07.020Z,8.68
2023-12-07T21:30:33.647Z,8.35
2023-12-07T21:33:03.591Z,10.43
2023-12-07T21:35:30.269Z,13.23
2023-12-07T21:37:57.009Z,13.50
2023-12-07T21:40:23.419Z,12.70
2023-12-07T21:42:50.154Z,13.57
2023-12-07T21:45:20.548Z,13.33
2023-12-07T21:47:57.209Z,13.68
2023-12-07T21:50:23.771Z,12.60
2023-12-07T21:53:04.685Z,9.77
2023-12-07T21:55:39.333Z,12.10
2023-12-07T21:58:05.787Z,11.63
2023-12-07T22:00:35.352Z,11.65
2023-12-07T22:03:05.267Z,7.70
2023-12-07T22:05:32.233Z,10.35
2023-12-07T22:08:10.350Z,7.95
2023-12-07T22:10:39.253Z,6.90
2023-12-07T22:13:05.784Z,6.93
2023-12-07T22:15:35.993Z,8.32
2023-12-07T22:18:12.852Z,9.45
2023-12-07T22:20:39.423Z,9.18
2023-12-07T22:23:09.380Z,15.60
2023-12-07T22:25:38.590Z,7.32
2023-12-07T22:28:05.037Z,8.75
2023-12-07T22:30:34.458Z,9.43
2023-12-07T22:33:01.016Z,10.35
2023-12-07T22:35:36.234Z,7.53
2023-12-07T22:38:05.931Z,9.93
2023-12-07T22:43:17.080Z,8.90
2023-12-07T22:45:46.217Z,7.60
2023-12-07T22:48:13.436Z,11.07
2023-12-07T22:50:42.718Z,8.35
2023-12-07T22:53:12.118Z,7.60
2023-12-07T22:55:40.775Z,7.65
2023-12-07T22:58:07.564Z,7.40
2023-12-07T23:00:37.030Z,10.07
2023-12-07T23:03:06.028Z,7.43
2023-12-07T23:05:32.802Z,9.32
2023-12-07T23:08:00.078Z,7.82
2023-12-07T23:10:26.820Z,10.88
2023-12-07T23:12:57.024Z,12.33
2023-12-07T23:15:23.462Z,8.95
2023-12-07T23:17:50.058Z,10.65
2023-12-07T23:20:21.479Z,10.13
2023-12-07T23:22:51.754Z,9.50
2023-12-07T23:25:22.217Z,7.47
2023-12-07T23:27:51.640Z,11.93
2023-12-07T23:30:21.914Z,9.20
2023-12-07T23:32:51.837Z,7.88
2023-12-07T23:35:18.743Z,9.93
2023-12-07T23:37:46.252Z,9.80
2023-12-07T23:40:16.656Z,12.25
2023-12-07T23:42:43.087Z,11.63
2023-12-07T23:45:13.247Z,9.52
2023-12-07T23:47:39.826Z,11.35
2023-12-07T23:50:06.720Z,10.87
2023-12-07T23:52:36.271Z,10.63
2023-12-07T23:55:06.373Z,10.63
2023-12-07T23:57:38.408Z,13.73
